Time;durP1;ratioP1;P1;durP2;ratioP2;P2;SDS_P1;SDS_P2;PMS_P1;PMS_P2;Temp;Humidity;BMP_temperature;BMP_pressure;BME280_temperature;BME280_humidity;BME280_pressure;Samples;Min_cycle;Max_cycle;Signal;HPM_P1;HPM_P2
2023/04/30 00:00:35;;;;;;;7.23;5.47;;;5.80;99.90;;;;;;5014719;28;21285;-63
2023/04/30 00:03:04;;;;;;;9.00;5.63;;;5.80;99.90;;;;;;5029078;28;20480;-64
2023/04/30 00:05:33;;;;;;;7.47;5.70;;;5.70;99.90;;;;;;5023078;28;21191;-64
2023/04/30 00:08:01;;;;;;;6.47;5.80;;;5.70;99.90;;;;;;5018448;28;20499;-64
2023/04/30 00:10:29;;;;;;;9.40;5.87;;;5.70;99.90;;;;;;5017128;28;20541;-64
2023/04/30 00:12:59;;;;;;;8.60;5.70;;;5.70;99.90;;;;;;5004367;28;20619;-65
2023/04/30 00:15:27;;;;;;;7.17;4.50;;;5.60;99.90;;;;;;5014531;28;21076;-64
2023/04/30 00:17:55;;;;;;;11.90;5.37;;;5.60;99.90;;;;;;5004722;28;20524;-64
2023/04/30 00:20:23;;;;;;;9.53;5.40;;;5.60;99.90;;;;;;5012541;28;20964;-64
2023/04/30 00:22:52;;;;;;;9.53;5.33;;;5.60;99.90;;;;;;5004965;28;20570;-64
2023/04/30 00:25:23;;;;;;;5.73;4.97;;;5.60;99.90;;;;;;5009785;28;20483;-64
2023/04/30 00:27:51;;;;;;;11.30;5.00;;;5.50;99.90;;;;;;5005740;28;20475;-64
2023/04/30 00:30:19;;;;;;;8.17;5.67;;;5.60;99.90;;;;;;5008382;28;20499;-64
2023/04/30 00:32:47;;;;;;;7.37;4.80;;;5.50;99.90;;;;;;5005168;28;21038;-64
2023/04/30 00:35:15;;;;;;;10.00;5.53;;;5.50;99.90;;;;;;5000601;28;20640;-64
2023/04/30 00:37:43;;;;;;;6.90;5.20;;;5.50;99.90;;;;;;5006711;28;20472;-64
2023/04/30 00:40:13;;;;;;;8.23;4.90;;;5.50;99.90;;;;;;5007122;28;20498;-64
2023/04/30 00:42:41;;;;;;;9.00;5.87;;;5.50;99.90;;;;;;5005727;28;20480;-64
2023/04/30 00:45:10;;;;;;;8.03;4.93;;;5.50;99.90;;;;;;5006744;28;20467;-63
2023/04/30 00:47:38;;;;;;;7.03;4.57;;;5.40;99.90;;;;;;5003126;28;20478;-64
2023/04/30 00:50:08;;;;;;;11.87;6.03;;;5.40;99.90;;;;;;5008254;28;20498;-64
2023/04/30 00:52:36;;;;;;;8.90;5.10;;;5.30;99.90;;;;;;5006140;28;20483;-64
2023/04/30 00:55:05;;;;;;;10.93;5.40;;;5.30;99.90;;;;;;5006979;28;20494;-63
2023/04/30 00:57:35;;;;;;;10.87;4.90;;;5.30;99.90;;;;;;5010420;28;20464;-63
2023/04/30 01:00:10;;;;;;;7.63;4.93;;;5.30;99.90;;;;;;5009740;28;20491;-63
2023/04/30 01:02:38;;;;;;;5.90;5.10;;;5.20;99.90;;;;;;5009724;28;20513;-64
2023/04/30 01:05:07;;;;;;;9.97;5.10;;;5.20;99.90;;;;;;5005689;28;20468;-63
2023/04/30 01:07:37;;;;;;;7.53;5.27;;;5.20;99.90;;;;;;5007913;28;20499;-64
2023/04/30 01:10:06;;;;;;;8.80;4.97;;;5.20;99.90;;;;;;5002364;28;21129;-64
2023/04/30 01:12:40;;;;;;;8.40;4.97;;;5.10;99.90;;;;;;5000104;28;20491;-63
2023/04/30 01:15:15;;;;;;;11.17;5.50;;;5.10;99.90;;;;;;5012327;28;20459;-63
2023/04/30 01:17:49;;;;;;;6.43;5.00;;;5.10;99.90;;;;;;5009920;28;20937;-63
2023/04/30 01:20:19;;;;;;;6.73;4.70;;;5.00;99.90;;;;;;5010396;28;20506;-63
2023/04/30 01:22:53;;;;;;;5.93;5.03;;;5.00;99.90;;;;;;5008791;28;20506;-63
2023/04/30 01:25:44;;;;;;;5.93;4.70;;;5.00;99.90;;;;;;5010861;28;20495;-63
2023/04/30 01:28:15;;;;;;;10.73;4.80;;;4.90;99.90;;;;;;5013695;28;20953;-64
2023/04/30 01:30:44;;;;;;;12.23;4.87;;;5.00;99.90;;;;;;5009048;28;20502;-63
2023/04/30 01:33:13;;;;;;;7.27;5.57;;;4.90;99.90;;;;;;5017264;28;20474;-64
2023/04/30 01:36:17;;;;;;;7.93;5.50;;;4.90;99.90;;;;;;5012318;28;20472;-64
2023/04/30 01:39:00;;;;;;;9.87;5.80;;;4.90;99.90;;;;;;4995696;28;21794;-63
2023/04/30 01:41:33;;;;;;;8.90;5.10;;;4.90;99.90;;;;;;5013740;28;20498;-63
2023/04/30 01:44:17;;;;;;;8.27;4.77;;;4.80;99.90;;;;;;5017332;28;21047;-64
2023/04/30 01:46:55;;;;;;;10.70;6.40;;;4.80;99.90;;;;;;5015454;28;20478;-63
2023/04/30 01:49:32;;;;;;;8.80;5.90;;;4.80;99.90;;;;;;5009995;28;20491;-63
2023/04/30 01:52:17;;;;;;;8.10;5.77;;;4.70;99.90;;;;;;5036369;27;20568;-64
2023/04/30 01:54:51;;;;;;;7.77;5.97;;;4.70;99.90;;;;;;5019188;28;20489;-63
2023/04/30 01:57:25;;;;;;;9.43;5.70;;;4.70;99.90;;;;;;5025186;28;20467;-62
2023/04/30 01:59:53;;;;;;;7.10;5.57;;;4.60;99.90;;;;;;5026298;28;21095;-63
2023/04/30 02:02:21;;;;;;;10.97;7.40;;;4.60;99.90;;;;;;5017818;28;20487;-63
2023/04/30 02:04:49;;;;;;;8.33;6.23;;;4.60;99.90;;;;;;5038753;28;20490;-62
2023/04/30 02:07:33;;;;;;;6.40;5.10;;;4.60;99.90;;;;;;5041487;28;20479;-62
2023/04/30 02:10:03;;;;;;;16.17;5.50;;;4.60;99.90;;;;;;5023770;28;20943;-64
2023/04/30 02:12:31;;;;;;;6.40;5.40;;;4.60;99.90;;;;;;5022160;28;20495;-63
2023/04/30 02:14:59;;;;;;;11.33;5.10;;;4.60;99.90;;;;;;5018875;28;20753;-62
2023/04/30 02:17:27;;;;;;;9.40;5.53;;;4.50;99.90;;;;;;5025921;28;20466;-62
2023/04/30 02:19:55;;;;;;;8.10;5.03;;;4.50;99.90;;;;;;5022644;28;20558;-63
2023/04/30 02:22:25;;;;;;;11.13;5.67;;;4.50;99.90;;;;;;5020950;28;20495;-62
2023/04/30 02:24:54;;;;;;;6.43;4.57;;;4.40;99.90;;;;;;5024192;28;20467;-62
2023/04/30 02:27:24;;;;;;;11.87;5.37;;;4.40;99.90;;;;;;5027330;28;20484;-62
2023/04/30 02:29:52;;;;;;;10.77;5.83;;;4.40;99.90;;;;;;5031017;28;20833;-63
2023/04/30 02:32:20;;;;;;;8.17;5.60;;;4.30;99.90;;;;;;5026240;28;20577;-65
2023/04/30 02:34:50;;;;;;;8.97;6.20;;;4.30;99.90;;;;;;5036155;28;20582;-63
2023/04/30 02:37:18;;;;;;;9.90;5.37;;;4.30;99.90;;;;;;5044936;28;20488;-62
2023/04/30 02:39:47;;;;;;;6.80;4.93;;;4.30;99.90;;;;;;5032014;28;20577;-65
2023/04/30 02:42:15;;;;;;;7.80;5.30;;;4.30;99.90;;;;;;5023091;28;20483;-63
2023/04/30 02:44:43;;;;;;;6.93;5.50;;;4.30;99.90;;;;;;5029847;28;22056;-63
2023/04/30 02:47:11;;;;;;;9.93;5.53;;;4.30;99.90;;;;;;5028971;28;20471;-63
2023/04/30 02:49:39;;;;;;;8.90;6.03;;;4.20;99.90;;;;;;5021774;28;21182;-63
2023/04/30 02:52:08;;;;;;;10.40;5.00;;;4.20;99.90;;;;;;5012278;28;20490;-63
2023/04/30 02:54:36;;;;;;;9.03;5.13;;;4.20;99.90;;;;;;5011530;28;20474;-63
2023/04/30 02:57:06;;;;;;;9.90;5.40;;;4.20;99.90;;;;;;5015448;28;20845;-63
2023/04/30 02:59:34;;;;;;;6.73;5.13;;;4.20;99.90;;;;;;5016456;28;20836;-63
2023/04/30 03:02:02;;;;;;;8.43;5.40;;;4.10;99.90;;;;;;5006392;28;20503;-63
2023/04/30 03:04:30;;;;;;;8.80;5.10;;;4.10;99.90;;;;;;5002830;28;23777;-63
2023/04/30 03:06:59;;;;;;;6.90;5.17;;;4.10;99.90;;;;;;4999749;28;20472;-63
2023/04/30 03:09:28;;;;;;;5.97;5.30;;;4.00;99.90;;;;;;4996889;28;20480;-64
2023/04/30 03:11:56;;;;;;;10.47;5.33;;;4.00;99.90;;;;;;5014516;28;20528;-63
2023/04/30 03:14:25;;;;;;;7.53;5.03;;;4.00;99.90;;;;;;4999974;28;20471;-63
2023/04/30 03:16:53;;;;;;;5.73;5.07;;;4.00;99.90;;;;;;5010369;28;20992;-63
2023/04/30 03:19:24;;;;;;;7.67;5.17;;;4.00;99.90;;;;;;4990176;28;20498;-63
2023/04/30 03:21:54;;;;;;;6.40;5.20;;;3.90;99.90;;;;;;4993994;28;20484;-63
2023/04/30 03:24:22;;;;;;;6.73;4.83;;;3.90;99.90;;;;;;4996171;28;20968;-63
2023/04/30 03:26:50;;;;;;;8.10;4.93;;;3.90;99.90;;;;;;5002890;28;20483;-62
2023/04/30 03:29:17;;;;;;;10.77;5.07;;;3.90;99.90;;;;;;5007861;28;20492;-63
2023/04/30 03:31:47;;;;;;;8.60;5.87;;;3.80;99.90;;;;;;4996047;28;21681;-63
2023/04/30 03:34:15;;;;;;;8.07;5.13;;;3.80;99.90;;;;;;4998729;28;20479;-63
2023/04/30 03:36:43;;;;;;;5.90;5.10;;;3.80;99.90;;;;;;5003742;28;20469;-63
2023/04/30 03:39:15;;;;;;;7.33;4.73;;;3.80;99.90;;;;;;4998992;28;21261;-63
2023/04/30 03:41:43;;;;;;;13.30;6.00;;;3.70;99.90;;;;;;5002063;28;20484;-65
2023/04/30 03:44:14;;;;;;;8.00;6.23;;;3.70;99.90;;;;;;5004387;28;20469;-63
2023/04/30 03:46:43;;;;;;;7.53;5.13;;;3.70;99.90;;;;;;5009105;28;20480;-63
2023/04/30 03:49:12;;;;;;;8.00;6.10;;;3.70;99.90;;;;;;5002751;28;20495;-63
2023/04/30 03:51:41;;;;;;;6.63;5.50;;;3.70;99.90;;;;;;4997416;28;20491;-64
2023/04/30 03:54:09;;;;;;;8.10;5.50;;;3.60;99.90;;;;;;4993871;28;20472;-63
2023/04/30 03:56:37;;;;;;;8.03;5.80;;;3.60;99.90;;;;;;5006867;28;20888;-63
2023/04/30 03:59:08;;;;;;;6.37;5.00;;;3.60;99.90;;;;;;4996149;28;20487;-63
2023/04/30 04:01:36;;;;;;;6.70;5.43;;;3.60;99.90;;;;;;5002122;28;20502;-63
2023/04/30 04:04:04;;;;;;;7.07;5.50;;;3.60;99.90;;;;;;5002360;28;20468;-63
2023/04/30 04:06:33;;;;;;;8.90;5.20;;;3.60;99.90;;;;;;5022303;28;20541;-63
2023/04/30 04:09:02;;;;;;;7.70;5.20;;;3.60;99.90;;;;;;5026750;28;20463;-63
2023/04/30 04:11:30;;;;;;;10.20;5.20;;;3.60;99.90;;;;;;5027552;28;20495;-63
2023/04/30 04:13:58;;;;;;;9.40;5.90;;;3.60;99.90;;;;;;5014354;28;22535;-63
2023/04/30 04:16:26;;;;;;;10.23;5.50;;;3.60;99.90;;;;;;5002557;28;20479;-62
2023/04/30 04:18:54;;;;;;;7.63;5.37;;;3.60;99.90;;;;;;5001984;28;20480;-64
2023/04/30 04:21:22;;;;;;;9.00;6.03;;;3.60;99.90;;;;;;4993035;28;20491;-63
2023/04/30 04:23:51;;;;;;;7.50;5.67;;;3.50;99.90;;;;;;4990150;28;20480;-63
2023/04/30 04:26:20;;;;;;;5.33;4.80;;;3.60;99.90;;;;;;4992345;28;20479;-63
2023/04/30 04:28:48;;;;;;;6.50;5.13;;;3.60;99.90;;;;;;5001893;28;22182;-64
2023/04/30 04:31:16;;;;;;;8.10;5.20;;;3.50;99.90;;;;;;4994358;28;20484;-63
2023/04/30 04:33:45;;;;;;;11.60;5.23;;;3.60;99.90;;;;;;4999086;28;20566;-63
2023/04/30 04:36:13;;;;;;;8.83;5.13;;;3.60;99.90;;;;;;4997714;28;20482;-65
2023/04/30 04:38:41;;;;;;;10.43;5.67;;;3.60;99.90;;;;;;4991415;28;20475;-63
2023/04/30 04:41:10;;;;;;;7.97;4.93;;;3.60;99.90;;;;;;4993179;28;20491;-63
2023/04/30 04:43:38;;;;;;;8.43;5.70;;;3.70;99.90;;;;;;4992487;28;20480;-63
2023/04/30 04:46:08;;;;;;;10.00;5.37;;;3.70;99.90;;;;;;4996682;28;20471;-63
2023/04/30 04:48:37;;;;;;;8.50;5.00;;;3.70;99.90;;;;;;4998850;28;20460;-63
2023/04/30 04:51:05;;;;;;;6.87;5.10;;;3.80;99.90;;;;;;4997274;28;20495;-64
2023/04/30 04:53:33;;;;;;;7.73;5.00;;;3.80;99.90;;;;;;5005653;28;20518;-63
2023/04/30 04:56:02;;;;;;;7.93;5.70;;;3.80;99.90;;;;;;5000259;28;20500;-63
2023/04/30 04:58:31;;;;;;;8.60;5.50;;;3.90;99.90;;;;;;5010771;28;20494;-63
2023/04/30 05:01:00;;;;;;;9.00;5.87;;;3.90;99.90;;;;;;5009038;28;21029;-63
2023/04/30 05:03:29;;;;;;;8.13;5.70;;;4.00;99.90;;;;;;5006678;28;20500;-63
2023/04/30 05:05:57;;;;;;;8.90;5.40;;;4.00;99.90;;;;;;5000376;28;20476;-63
2023/04/30 05:08:26;;;;;;;8.47;5.50;;;4.10;99.90;;;;;;5003367;28;21794;-63
2023/04/30 05:10:54;;;;;;;9.87;5.40;;;4.10;99.90;;;;;;4994373;28;20849;-63
2023/04/30 05:13:22;;;;;;;7.80;6.27;;;4.20;99.90;;;;;;4999453;28;22564;-63
2023/04/30 05:15:52;;;;;;;9.00;5.07;;;4.30;99.90;;;;;;4999375;28;20501;-63
2023/04/30 05:18:21;;;;;;;9.90;6.00;;;4.30;99.90;;;;;;5003013;28;20559;-63
2023/04/30 05:20:49;;;;;;;9.13;5.27;;;4.40;99.90;;;;;;4999652;28;20591;-63
2023/04/30 05:23:17;;;;;;;5.73;5.23;;;4.40;99.90;;;;;;4999822;28;20847;-63
2023/04/30 05:25:45;;;;;;;11.13;6.20;;;4.50;99.90;;;;;;4996621;28;20479;-64
2023/04/30 05:28:13;;;;;;;9.13;5.93;;;4.60;99.90;;;;;;5005661;28;20478;-62
2023/04/30 05:30:40;;;;;;;11.37;5.90;;;4.70;99.90;;;;;;5006788;28;21013;-62
2023/04/30 05:33:10;;;;;;;9.33;6.40;;;4.70;99.90;;;;;;5002233;28;20491;-69
2023/04/30 05:35:38;;;;;;;7.60;5.70;;;4.80;99.90;;;;;;5004826;28;20479;-62
2023/04/30 05:38:06;;;;;;;8.90;5.23;;;4.90;99.90;;;;;;5000949;28;20473;-62
2023/04/30 05:40:34;;;;;;;9.83;5.20;;;4.90;99.90;;;;;;5002490;28;20865;-62
2023/04/30 05:43:02;;;;;;;11.03;5.80;;;5.00;99.90;;;;;;4988536;28;20467;-63
2023/04/30 05:45:30;;;;;;;7.67;5.57;;;5.00;99.90;;;;;;4996966;28;23825;-62
2023/04/30 05:47:58;;;;;;;9.70;5.37;;;5.10;99.90;;;;;;5006022;28;20478;-62
2023/04/30 05:50:27;;;;;;;8.83;4.83;;;5.20;99.90;;;;;;4995484;28;20546;-63
2023/04/30 05:52:55;;;;;;;7.07;4.80;;;5.30;99.90;;;;;;4998651;28;21024;-63
2023/04/30 05:55:23;;;;;;;8.20;5.80;;;5.40;99.90;;;;;;4990503;28;20638;-63
2023/04/30 05:57:51;;;;;;;7.53;4.80;;;5.50;99.90;;;;;;4992112;28;20471;-69
2023/04/30 06:00:19;;;;;;;10.33;4.97;;;5.60;99.90;;;;;;4992684;28;20499;-67
2023/04/30 06:02:49;;;;;;;6.63;5.03;;;5.70;99.90;;;;;;4984749;28;20487;-64
2023/04/30 06:05:17;;;;;;;10.23;5.23;;;5.70;99.90;;;;;;4998983;28;20693;-64
2023/04/30 06:07:46;;;;;;;5.27;4.17;;;5.80;99.90;;;;;;4988230;28;20607;-65
2023/04/30 06:10:14;;;;;;;8.90;4.27;;;5.80;99.90;;;;;;5018448;28;20494;-65
2023/04/30 06:12:42;;;;;;;11.80;5.10;;;5.90;99.90;;;;;;5013649;28;21020;-65
2023/04/30 06:15:11;;;;;;;7.70;4.53;;;6.00;99.90;;;;;;4994368;28;20486;-64
2023/04/30 06:17:39;;;;;;;5.33;3.60;;;6.00;99.90;;;;;;4979335;28;20476;-64
2023/04/30 06:20:08;;;;;;;9.13;4.33;;;6.10;99.90;;;;;;4998236;28;20540;-64
2023/04/30 06:22:36;;;;;;;6.93;4.10;;;6.20;99.90;;;;;;4991117;28;20574;-65
2023/04/30 06:25:07;;;;;;;5.17;4.07;;;6.30;99.90;;;;;;5000640;28;20487;-64
2023/04/30 06:27:35;;;;;;;6.00;3.70;;;6.30;99.90;;;;;;4981520;28;20708;-64
2023/04/30 06:30:03;;;;;;;5.60;3.67;;;6.40;99.90;;;;;;4986437;28;20599;-65
2023/04/30 06:32:31;;;;;;;5.37;3.43;;;6.50;99.90;;;;;;4981182;28;20491;-64
2023/04/30 06:35:00;;;;;;;12.57;4.00;;;6.60;99.90;;;;;;4984802;28;21892;-64
2023/04/30 06:37:27;;;;;;;7.23;4.87;;;6.70;99.90;;;;;;4993126;28;20480;-64
2023/04/30 06:39:55;;;;;;;7.33;3.63;;;6.80;99.90;;;;;;4994479;28;20964;-65
2023/04/30 06:42:25;;;;;;;4.90;3.40;;;6.90;99.90;;;;;;4990215;28;20488;-65
2023/04/30 06:44:54;;;;;;;7.00;4.30;;;7.00;99.90;;;;;;4997184;28;20474;-65
2023/04/30 06:47:22;;;;;;;3.97;3.60;;;7.00;99.90;;;;;;4977996;28;20473;-65
2023/04/30 06:49:50;;;;;;;7.07;3.77;;;7.10;99.90;;;;;;4984482;28;20573;-69
2023/04/30 06:52:18;;;;;;;5.63;3.50;;;7.10;99.90;;;;;;4989264;28;21079;-67
2023/04/30 06:54:46;;;;;;;4.67;3.30;;;7.20;99.90;;;;;;4989670;28;20494;-66
2023/04/30 06:57:13;;;;;;;6.43;3.30;;;7.30;99.90;;;;;;4992123;28;21074;-67
2023/04/30 06:59:45;;;;;;;5.30;3.63;;;7.40;99.90;;;;;;5005983;28;20927;-67
2023/04/30 07:02:13;;;;;;;5.80;3.40;;;7.40;99.90;;;;;;5004431;28;20484;-66
2023/04/30 07:04:41;;;;;;;7.30;3.37;;;7.50;99.90;;;;;;5002571;28;20459;-66
2023/04/30 07:07:09;;;;;;;6.50;3.20;;;7.50;99.90;;;;;;4996262;28;20463;-67
2023/04/30 07:09:37;;;;;;;4.73;3.73;;;7.60;99.90;;;;;;4999126;28;21095;-66
2023/04/30 07:12:05;;;;;;;6.83;3.50;;;7.70;99.90;;;;;;4995188;28;20506;-66
2023/04/30 07:14:33;;;;;;;6.07;3.60;;;7.80;99.90;;;;;;5001571;28;20872;-67
2023/04/30 07:17:02;;;;;;;4.40;2.87;;;7.90;99.90;;;;;;5007761;28;20482;-68
2023/04/30 07:19:31;;;;;;;3.40;2.80;;;8.00;99.90;;;;;;5014601;28;20492;-67
2023/04/30 07:21:59;;;;;;;8.10;3.93;;;8.10;99.90;;;;;;5006308;28;20491;-68
2023/04/30 07:24:27;;;;;;;6.80;3.13;;;8.10;99.90;;;;;;5010836;28;20480;-70
2023/04/30 07:26:55;;;;;;;9.37;3.53;;;8.20;99.90;;;;;;5011801;28;20471;-65
2023/04/30 07:29:23;;;;;;;6.73;3.63;;;8.20;99.90;;;;;;5007520;28;20496;-66
2023/04/30 07:31:51;;;;;;;6.73;2.77;;;8.30;99.90;;;;;;5011785;28;20483;-65
2023/04/30 07:34:20;;;;;;;4.80;3.20;;;8.40;99.90;;;;;;5011904;28;20578;-65
2023/04/30 07:36:48;;;;;;;4.90;2.70;;;8.30;99.90;;;;;;5011392;28;20499;-66
2023/04/30 07:39:16;;;;;;;3.07;2.83;;;8.30;99.90;;;;;;5005792;28;20499;-66
2023/04/30 07:41:44;;;;;;;3.97;3.40;;;8.30;99.90;;;;;;4998402;28;20484;-66
2023/04/30 07:44:12;;;;;;;4.53;3.50;;;8.30;99.90;;;;;;5006926;28;20530;-66
2023/04/30 07:46:40;;;;;;;7.50;3.63;;;8.40;99.90;;;;;;5001009;28;20464;-66
2023/04/30 07:49:08;;;;;;;5.63;3.43;;;8.50;99.90;;;;;;5008467;28;20852;-67
2023/04/30 07:51:38;;;;;;;4.03;2.60;;;8.60;99.90;;;;;;5005508;28;20493;-66
2023/04/30 07:54:06;;;;;;;4.37;2.73;;;8.60;99.90;;;;;;5009074;28;20505;-66
2023/04/30 07:56:34;;;;;;;7.00;2.90;;;8.50;99.90;;;;;;5011957;28;20499;-67
2023/04/30 07:59:02;;;;;;;4.60;3.00;;;8.50;99.90;;;;;;5010074;28;20467;-66
2023/04/30 08:01:30;;;;;;;6.00;3.50;;;8.50;99.90;;;;;;5014004;28;20491;-66
2023/04/30 08:03:58;;;;;;;5.87;3.20;;;8.50;99.90;;;;;;5015456;28;20495;-66
2023/04/30 08:06:27;;;;;;;10.03;3.87;;;8.60;99.90;;;;;;5017625;28;20479;-66
2023/04/30 08:08:57;;;;;;;6.03;3.20;;;8.60;99.90;;;;;;5017830;28;20568;-65
2023/04/30 08:11:25;;;;;;;3.67;3.33;;;8.60;99.90;;;;;;5024515;28;20479;-68
2023/04/30 08:13:53;;;;;;;5.63;3.37;;;8.70;99.90;;;;;;5034390;28;20500;-69
2023/04/30 08:16:20;;;;;;;5.60;3.87;;;8.80;99.90;;;;;;5025927;28;20468;-67
2023/04/30 08:18:48;;;;;;;4.37;2.87;;;8.80;99.90;;;;;;5016488;28;21076;-66
2023/04/30 08:21:17;;;;;;;5.47;2.93;;;8.80;99.90;;;;;;5013280;28;20494;-66
2023/04/30 08:23:48;;;;;;;5.37;3.40;;;8.90;99.90;;;;;;5012937;28;20475;-66
2023/04/30 08:26:17;;;;;;;4.10;3.10;;;8.90;99.90;;;;;;5014616;28;20482;-66
2023/04/30 08:28:45;;;;;;;4.13;3.40;;;8.90;99.90;;;;;;5021160;28;20483;-67
2023/04/30 08:31:13;;;;;;;4.90;3.40;;;8.90;99.90;;;;;;5024172;28;20581;-67
2023/04/30 08:33:41;;;;;;;3.80;2.60;;;9.00;99.90;;;;;;5022160;28;20500;-67
2023/04/30 08:36:09;;;;;;;5.50;2.93;;;8.90;99.90;;;;;;4994179;28;20491;-66
2023/04/30 08:38:37;;;;;;;5.50;3.17;;;8.90;99.90;;;;;;5002712;28;20491;-68
2023/04/30 08:41:11;;;;;;;7.40;3.63;;;9.00;99.90;;;;;;4997214;28;20495;-69
2023/04/30 08:43:41;;;;;;;4.60;3.03;;;9.00;99.90;;;;;;4987038;28;20492;-66
2023/04/30 08:46:11;;;;;;;8.53;4.33;;;9.10;99.90;;;;;;4995182;28;20510;-65
2023/04/30 08:48:41;;;;;;;5.80;2.90;;;9.20;99.90;;;;;;4996679;28;20504;-67
2023/04/30 08:51:09;;;;;;;3.50;2.90;;;9.30;99.90;;;;;;4990678;28;20492;-68
2023/04/30 08:53:38;;;;;;;4.60;2.80;;;9.40;99.90;;;;;;4984497;28;20496;-65
2023/04/30 08:56:06;;;;;;;6.27;3.50;;;9.40;99.90;;;;;;4987356;28;20479;-67
2023/04/30 08:58:34;;;;;;;7.47;3.10;;;9.50;99.90;;;;;;4986073;28;21501;-67
2023/04/30 09:01:07;;;;;;;5.00;3.10;;;9.50;99.90;;;;;;4998495;28;20495;-67
2023/04/30 09:03:36;;;;;;;4.60;3.30;;;9.50;99.90;;;;;;4997725;28;20464;-67
2023/04/30 09:06:04;;;;;;;4.70;3.37;;;9.50;99.90;;;;;;4998203;28;20857;-66
2023/04/30 09:08:43;;;;;;;4.53;2.87;;;9.50;99.90;;;;;;4989624;28;20606;-65
2023/04/30 09:11:25;;;;;;;3.90;3.50;;;9.60;99.90;;;;;;4997991;28;20503;-66
2023/04/30 09:13:54;;;;;;;5.90;3.10;;;9.70;99.90;;;;;;5001873;28;20480;-66
2023/04/30 09:16:24;;;;;;;7.03;3.40;;;9.70;99.90;;;;;;5009126;28;20480;-65
2023/04/30 09:18:56;;;;;;;3.70;2.80;;;9.70;99.90;;;;;;5005854;28;20538;-65
2023/04/30 09:21:34;;;;;;;6.13;3.27;;;9.70;99.90;;;;;;5004089;28;20488;-67
2023/04/30 09:24:04;;;;;;;6.30;3.40;;;9.80;99.90;;;;;;5011121;28;20803;-66
2023/04/30 09:26:34;;;;;;;4.03;3.10;;;9.90;99.90;;;;;;5003917;28;20467;-65
2023/04/30 09:29:06;;;;;;;4.53;3.47;;;9.90;99.90;;;;;;5007988;28;20468;-66
2023/04/30 09:31:37;;;;;;;5.30;3.20;;;10.00;99.90;;;;;;5008461;28;20549;-65
2023/04/30 09:34:06;;;;;;;4.57;3.10;;;10.00;99.90;;;;;;5008375;28;20476;-66
2023/04/30 09:36:34;;;;;;;5.73;3.10;;;10.10;99.90;;;;;;5012049;28;20818;-65
2023/04/30 09:39:10;;;;;;;4.80;2.90;;;10.20;99.90;;;;;;5006255;28;20972;-65
2023/04/30 09:41:42;;;;;;;3.50;2.67;;;10.20;99.90;;;;;;5004892;28;23416;-67
2023/04/30 09:44:27;;;;;;;5.23;3.13;;;10.20;99.90;;;;;;5003717;28;20475;-67
2023/04/30 09:46:58;;;;;;;3.67;2.73;;;10.30;99.90;;;;;;5000522;28;21846;-65
2023/04/30 09:49:26;;;;;;;5.37;2.90;;;10.30;99.90;;;;;;5000848;28;20546;-66
2023/04/30 09:51:55;;;;;;;4.13;3.27;;;10.30;99.90;;;;;;4995306;28;20483;-65
2023/04/30 09:54:26;;;;;;;5.00;3.33;;;10.40;99.90;;;;;;4994819;28;21013;-65
2023/04/30 09:56:56;;;;;;;5.73;3.53;;;10.50;99.90;;;;;;4996779;28;20971;-66
2023/04/30 09:59:30;;;;;;;4.03;2.93;;;10.60;99.90;;;;;;4997126;28;20546;-65
2023/04/30 10:02:01;;;;;;;4.37;3.27;;;10.50;99.90;;;;;;5001711;28;21407;-69
2023/04/30 10:04:32;;;;;;;4.50;3.40;;;10.60;99.90;;;;;;4995064;28;20467;-65
2023/04/30 10:07:02;;;;;;;3.57;2.97;;;10.70;99.90;;;;;;5005746;28;20476;-65
2023/04/30 10:09:42;;;;;;;5.07;3.53;;;10.80;99.90;;;;;;5002233;28;21804;-65
2023/04/30 10:12:15;;;;;;;5.50;3.43;;;10.90;99.90;;;;;;5007970;28;20494;-65
2023/04/30 10:14:49;;;;;;;3.57;3.03;;;11.10;99.90;;;;;;5021709;28;20490;-62
2023/04/30 10:17:20;;;;;;;3.70;2.80;;;11.00;99.90;;;;;;5023807;28;20468;-61
2023/04/30 10:19:52;;;;;;;4.30;3.13;;;11.10;99.90;;;;;;5008399;28;20514;-62
2023/04/30 10:22:20;;;;;;;4.30;3.37;;;11.20;99.90;;;;;;5008655;28;20514;-62
2023/04/30 10:24:49;;;;;;;3.27;2.97;;;11.30;99.90;;;;;;5001086;28;20474;-62
2023/04/30 10:27:18;;;;;;;5.07;3.90;;;11.20;99.90;;;;;;5000738;28;20505;-62
2023/04/30 10:29:48;;;;;;;3.97;3.30;;;11.30;99.90;;;;;;5002748;28;20522;-63
2023/04/30 10:32:20;;;;;;;5.13;3.20;;;11.30;99.90;;;;;;5003795;28;20487;-62
2023/04/30 10:34:54;;;;;;;3.33;2.90;;;11.40;99.90;;;;;;5008028;28;20529;-63
2023/04/30 10:37:31;;;;;;;4.47;3.23;;;11.60;99.90;;;;;;5013019;28;20474;-63
2023/04/30 10:40:00;;;;;;;3.63;3.00;;;11.70;99.90;;;;;;5003258;28;21309;-61
2023/04/30 10:42:28;;;;;;;3.40;3.10;;;11.70;99.90;;;;;;4993613;28;20491;-63
2023/04/30 10:44:56;;;;;;;5.60;3.30;;;11.70;99.90;;;;;;4995849;28;20483;-61
2023/04/30 10:47:30;;;;;;;3.43;3.03;;;11.70;99.90;;;;;;5001499;28;20588;-63
2023/04/30 10:50:03;;;;;;;4.90;3.63;;;11.80;99.90;;;;;;5000995;28;20566;-63
2023/04/30 10:52:31;;;;;;;5.30;3.93;;;11.80;99.90;;;;;;5004494;28;20499;-62
2023/04/30 10:55:00;;;;;;;4.23;3.40;;;11.80;99.90;;;;;;5010722;28;20955;-63
2023/04/30 10:57:29;;;;;;;4.30;3.23;;;11.90;99.90;;;;;;5020019;28;20832;-60
2023/04/30 11:00:19;;;;;;;6.13;3.37;;;12.00;99.90;;;;;;5016336;28;20484;-61
2023/04/30 11:02:48;;;;;;;4.93;3.50;;;12.00;99.90;;;;;;5012172;28;20495;-61
2023/04/30 11:05:18;;;;;;;7.43;3.50;;;12.20;99.90;;;;;;5002706;28;20491;-62
2023/04/30 11:07:50;;;;;;;3.93;3.17;;;12.30;99.90;;;;;;5005689;28;20594;-61
2023/04/30 11:10:21;;;;;;;4.50;3.67;;;12.20;99.90;;;;;;5006869;28;21012;-61
2023/04/30 11:12:50;;;;;;;5.20;3.40;;;12.20;99.90;;;;;;5008006;28;20992;-63
2023/04/30 11:15:21;;;;;;;4.43;2.80;;;12.20;99.90;;;;;;5002614;28;20500;-63
2023/04/30 11:17:51;;;;;;;5.80;3.20;;;12.20;99.90;;;;;;5008306;28;20484;-63
2023/04/30 11:20:21;;;;;;;4.73;3.27;;;12.30;99.90;;;;;;5014424;28;20502;-63
2023/04/30 11:23:07;;;;;;;4.10;3.00;;;12.50;99.90;;;;;;5014855;28;20488;-63
2023/04/30 11:25:40;;;;;;;4.50;3.40;;;12.80;99.90;;;;;;5012391;28;20848;-64
2023/04/30 11:28:13;;;;;;;5.30;3.80;;;13.00;99.90;;;;;;5021387;28;21039;-63
2023/04/30 11:30:42;;;;;;;4.00;3.40;;;13.10;99.90;;;;;;5011695;28;20525;-64
2023/04/30 11:33:17;;;;;;;6.40;3.20;;;13.10;99.90;;;;;;5015761;28;20464;-64
2023/04/30 11:35:48;;;;;;;3.97;3.20;;;13.20;99.90;;;;;;5017104;28;20991;-64
2023/04/30 11:38:18;;;;;;;4.43;3.33;;;13.30;99.90;;;;;;5016389;28;20480;-64
2023/04/30 11:40:48;;;;;;;4.30;3.43;;;13.40;99.90;;;;;;5011194;28;21303;-64
2023/04/30 11:43:23;;;;;;;6.30;3.60;;;13.60;99.90;;;;;;5015197;28;20981;-64
2023/04/30 11:46:06;;;;;;;4.40;3.80;;;13.70;99.90;;;;;;5008306;28;20569;-63
2023/04/30 11:48:37;;;;;;;3.47;2.97;;;13.90;99.90;;;;;;4989953;28;20475;-67
2023/04/30 11:51:14;;;;;;;4.73;3.70;;;14.00;99.90;;;;;;5013870;28;20614;-62
2023/04/30 11:53:43;;;;;;;6.17;3.17;;;14.10;96.20;;;;;;4987111;28;20483;-63
2023/04/30 11:56:11;;;;;;;3.33;3.03;;;14.10;99.90;;;;;;4997758;28;21421;-61
2023/04/30 11:58:39;;;;;;;5.37;3.77;;;14.30;99.40;;;;;;5008778;28;20572;-62
2023/04/30 12:01:09;;;;;;;3.20;2.90;;;14.40;99.90;;;;;;4997525;28;20476;-62
2023/04/30 12:03:43;;;;;;;5.63;2.87;;;14.50;91.50;;;;;;4990596;28;21053;-64
2023/04/30 12:06:12;;;;;;;3.30;2.87;;;14.70;97.90;;;;;;4999266;28;20483;-62
2023/04/30 12:08:42;;;;;;;4.90;3.30;;;14.70;87.70;;;;;;4998273;28;20820;-63
2023/04/30 12:11:24;;;;;;;4.73;3.20;;;14.90;98.80;;;;;;4984237;28;20498;-63
2023/04/30 12:13:53;;;;;;;5.37;3.60;;;15.00;99.90;;;;;;5002519;28;20467;-62
2023/04/30 12:16:21;;;;;;;3.43;3.13;;;15.20;79.90;;;;;;5017084;28;20492;-62
2023/04/30 12:18:50;;;;;;;4.50;3.30;;;15.30;95.20;;;;;;4999014;28;20841;-65
2023/04/30 12:21:21;;;;;;;5.27;3.63;;;15.30;99.90;;;;;;5002703;28;20509;-65
2023/04/30 12:23:49;;;;;;;3.80;3.40;;;15.50;93.00;;;;;;4997343;28;20934;-64
2023/04/30 12:26:17;;;;;;;5.10;4.00;;;15.60;99.90;;;;;;5000044;28;21010;-64
2023/04/30 12:28:47;;;;;;;5.03;3.27;;;15.80;82.40;;;;;;5001396;28;20495;-63
2023/04/30 12:31:18;;;;;;;4.20;3.53;;;15.90;91.20;;;;;;4997641;28;20606;-65
2023/04/30 12:33:55;;;;;;;3.77;3.40;;;15.90;93.00;;;;;;5002711;28;21007;-65
2023/04/30 12:36:31;;;;;;;5.20;3.67;;;16.00;84.90;;;;;;4998152;28;20966;-64
2023/04/30 12:39:06;;;;;;;3.43;3.13;;;16.10;83.60;;;;;;4994383;28;20468;-64
2023/04/30 12:41:37;;;;;;;6.03;3.80;;;16.20;84.50;;;;;;4991557;28;20491;-65
2023/04/30 12:44:17;;;;;;;3.73;3.43;;;16.30;81.70;;;;;;4996134;28;20476;-63
2023/04/30 12:46:46;;;;;;;6.50;4.70;;;16.50;76.10;;;;;;4994132;28;20578;-66
2023/04/30 12:49:24;;;;;;;3.67;3.37;;;16.70;91.60;;;;;;4999599;28;20582;-65
2023/04/30 12:51:57;;;;;;;4.43;3.27;;;16.90;69.80;;;;;;4996128;28;20580;-66
2023/04/30 12:54:26;;;;;;;3.53;3.13;;;17.00;72.10;;;;;;5000051;28;20476;-63
2023/04/30 12:57:04;;;;;;;5.90;3.70;;;17.20;80.60;;;;;;5000815;28;20483;-64
2023/04/30 12:59:34;;;;;;;6.77;3.50;;;17.30;59.00;;;;;;4999058;28;20502;-65
2023/04/30 13:02:07;;;;;;;3.40;3.10;;;17.40;73.90;;;;;;4999763;28;21336;-64
2023/04/30 13:04:41;;;;;;;3.50;2.87;;;17.60;68.40;;;;;;5001198;28;20474;-64
2023/04/30 13:07:10;;;;;;;3.87;3.17;;;17.70;68.00;;;;;;4995815;28;20467;-63